createdAt,value
2023-10-28T00:00:52.431Z,1
2023-10-28T00:01:52.505Z,1.200
2023-10-28T00:03:49.708Z,1.100
2023-10-28T00:04:49.627Z,1
2023-10-28T00:07:50.949Z,1.299
2023-10-28T00:08:50.747Z,1.200
2023-10-28T00:09:50.886Z,1.299
2023-10-28T00:10:52.281Z,1
2023-10-28T00:11:50.433Z,1.100
2023-10-28T00:12:49.082Z,0.899
2023-10-28T00:13:49.124Z,1.299
2023-10-28T00:15:51.859Z,1.200
2023-10-28T00:16:51.036Z,1.299
2023-10-28T00:17:51.788Z,1.200
2023-10-28T00:19:51.839Z,1.100
2023-10-28T00:20:49.992Z,1.200
2023-10-28T00:21:50.243Z,1.100
2023-10-28T00:22:50.786Z,1.299
2023-10-28T00:24:51.169Z,1.100
2023-10-28T00:25:51.590Z,1.299
2023-10-28T00:26:51.858Z,1
2023-10-28T00:27:51.266Z,1.299
2023-10-28T00:28:51.552Z,1.200
2023-10-28T00:29:50.425Z,1.5
2023-10-28T00:30:50.469Z,1.299
2023-10-28T00:31:50.953Z,1.100
2023-10-28T00:32:50.854Z,1.200
2023-10-28T00:34:50.903Z,1.100
2023-10-28T00:35:51.609Z,1.299
2023-10-28T00:36:51.473Z,1
2023-10-28T00:37:52.126Z,1.100
2023-10-28T00:38:52.296Z,1
2023-10-28T00:39:50.543Z,1.200
2023-10-28T00:40:50.116Z,1.100
2023-10-28T00:41:51.049Z,1
2023-10-28T00:44:51.048Z,0.800
2023-10-28T00:45:50.671Z,1.100
2023-10-28T00:47:51.221Z,1.200
2023-10-28T00:48:50.698Z,1.5
2023-10-28T00:49:49.171Z,1.200
2023-10-28T00:50:50.816Z,1
2023-10-28T00:51:50.653Z,1.200
2023-10-28T00:52:51.399Z,1
2023-10-28T00:53:52.231Z,1.5
2023-10-28T00:55:51.508Z,1.299
2023-10-28T00:56:50.301Z,1.100
2023-10-28T00:57:51.498Z,1
2023-10-28T00:58:52.500Z,1.200
2023-10-28T00:59:51.947Z,1.100
2023-10-28T01:01:51.075Z,1.200
2023-10-28T01:02:49.513Z,1
2023-10-28T01:03:50.197Z,1.299
2023-10-28T01:04:48.991Z,1.100
2023-10-28T01:05:50.363Z,1
2023-10-28T01:06:51.641Z,1.100
2023-10-28T01:09:51.720Z,1
2023-10-28T01:10:51.023Z,1.100
2023-10-28T01:11:50.989Z,0.899
2023-10-28T01:12:51.452Z,1.100
2023-10-28T01:13:50.379Z,0.899
2023-10-28T01:14:51.048Z,1
2023-10-28T01:17:50.620Z,1.100
2023-10-28T01:18:50.902Z,0.800
2023-10-28T01:19:52.072Z,1
2023-10-28T01:20:50.584Z,0.899
2023-10-28T01:21:49.261Z,1
2023-10-28T01:23:51.748Z,0.800
2023-10-28T01:24:51.726Z,0.600
2023-10-28T01:25:52.095Z,0.5
2023-10-28T01:26:52.148Z,0.800
2023-10-28T01:27:51.763Z,0.699
2023-10-28T01:28:50.280Z,0.800
2023-10-28T01:29:49.788Z,0.699
2023-10-28T01:30:50.491Z,0.800
2023-10-28T01:31:51.324Z,0.699
2023-10-28T01:32:52.134Z,0.800
2023-10-28T01:35:51.310Z,0.699
2023-10-28T01:38:52.094Z,0.600
2023-10-28T01:39:52.078Z,0.5
2023-10-28T01:40:52.845Z,0.699
2023-10-28T01:41:52.523Z,1.100
2023-10-28T01:42:52.046Z,0.600
2023-10-28T01:44:51.395Z,0.800
2023-10-28T01:45:52.616Z,0.600
2023-10-28T01:46:51.183Z,0.699
2023-10-28T01:47:50.415Z,0.5
2023-10-28T01:48:51.192Z,0.800
2023-10-28T01:49:51.235Z,0.600
2023-10-28T01:51:51.677Z,0.5
2023-10-28T01:52:51.793Z,0.899
2023-10-28T01:53:52.056Z,0.699
2023-10-28T01:56:51.818Z,0.800
2023-10-28T01:57:52.190Z,0.600
2023-10-28T01:59:50.510Z,0.699
2023-10-28T02:00:52.608Z,0.800
2023-10-28T02:01:52.020Z,0.600
2023-10-28T02:02:50.880Z,0.699
2023-10-28T02:03:51.797Z,0.899
2023-10-28T02:04:49.706Z,0.699
2023-10-28T02:08:51.354Z,0.600
2023-10-28T02:09:51.325Z,0.5
2023-10-28T02:10:52.815Z,0.400
2023-10-28T02:11:51.832Z,0.5
2023-10-28T02:12:51.501Z,0.600
2023-10-28T02:13:52.207Z,0.400
2023-10-28T02:16:51.494Z,0.5
2023-10-28T02:17:51.490Z,0.400
2023-10-28T02:19:51.214Z,0.5
2023-10-28T02:20:50.937Z,0.200
2023-10-28T02:21:59.180Z,0.400
2023-10-28T02:23:50.712Z,0.5
2023-10-28T02:24:52.466Z,0.300
2023-10-28T02:27:52.888Z,0.400
2023-10-28T02:28:52.623Z,0.300
2023-10-28T02:29:51.675Z,0.400
2023-10-28T02:36:51.332Z,0.300
2023-10-28T02:37:51.608Z,0.5
2023-10-28T02:38:51.793Z,0.300
2023-10-28T02:39:51.882Z,0.200
2023-10-28T02:40:52.184Z,0.300
2023-10-28T02:42:51.602Z,0.400
2023-10-28T02:44:51.144Z,0.5
2023-10-28T02:45:51.772Z,0.300
2023-10-28T02:47:51.375Z,0.600
2023-10-28T02:48:52.075Z,0.400
2023-10-28T02:49:51.400Z,0.300
2023-10-28T02:51:52.307Z,0.400
2023-10-28T02:52:51.869Z,0.300
2023-10-28T02:53:52.071Z,0.5
2023-10-28T02:54:50.885Z,0.300
2023-10-28T02:57:51.759Z,0.5
2023-10-28T02:58:52.568Z,0.400
2023-10-28T02:59:51.520Z,0.5
2023-10-28T03:00:52.304Z,0.300
2023-10-28T03:01:51.677Z,0.400
2023-10-28T03:06:50.527Z,0.600
2023-10-28T03:08:50.941Z,0.5
2023-10-28T03:09:52.611Z,0.699
2023-10-28T03:10:51.478Z,0.400
2023-10-28T03:11:51.891Z,0.5
2023-10-28T03:12:51.980Z,0.600
2023-10-28T03:13:51.215Z,0.699
2023-10-28T03:14:51.801Z,0.600
2023-10-28T03:15:53.205Z,0.699
2023-10-28T03:17:53.356Z,0.600
2023-10-28T03:18:52.923Z,0.699
2023-10-28T03:19:52.484Z,0.5
2023-10-28T03:20:53.236Z,0.899
2023-10-28T03:21:54.401Z,0.800
2023-10-28T03:22:53.269Z,0.600
2023-10-28T03:23:52.396Z,0.899
2023-10-28T03:24:51.175Z,0.699
2023-10-28T03:25:49.974Z,0.800
2023-10-28T03:26:51.544Z,1
2023-10-28T03:27:51.686Z,0.899
2023-10-28T03:28:51.857Z,0.699
2023-10-28T03:29:51.167Z,1
2023-10-28T03:30:50.312Z,0.800
2023-10-28T03:31:51.267Z,0.600
2023-10-28T03:32:49.437Z,0.800
2023-10-28T03:33:50.309Z,1
2023-10-28T03:34:52.071Z,0.800
2023-10-28T03:38:50.375Z,0.699
2023-10-28T03:40:52.450Z,0.899
2023-10-28T03:42:51.263Z,0.800
2023-10-28T03:43:51.556Z,0.699
2023-10-28T03:44:51.001Z,0.600
2023-10-28T03:45:52.297Z,1
2023-10-28T03:46:52.253Z,0.699
2023-10-28T03:50:50.542Z,0.600
2023-10-28T03:51:51.877Z,0.699
2023-10-28T03:53:51.112Z,0.800
2023-10-28T03:54:50.784Z,0.600
2023-10-28T03:55:51.037Z,0.5
2023-10-28T03:56:50.633Z,0.699
2023-10-28T03:57:52.672Z,1
2023-10-28T04:00:52.232Z,0.600
2023-10-28T04:02:51.773Z,0.699
2023-10-28T04:03:51.657Z,0.899
2023-10-28T04:06:50.869Z,1
2023-10-28T04:07:51.753Z,0.699
2023-10-28T04:08:51.411Z,0.800
2023-10-28T04:09:52.683Z,0.899
2023-10-28T04:10:52.535Z,0.800
2023-10-28T04:12:51.132Z,0.699
2023-10-28T04:13:52.633Z,0.800
2023-10-28T04:14:50.928Z,0.699
2023-10-28T04:15:52.245Z,0.800
2023-10-28T04:17:51.564Z,0.699
2023-10-28T04:18:50.791Z,0.800
2023-10-28T04:19:52.019Z,0.600
2023-10-28T04:20:50.054Z,0.800
2023-10-28T04:21:52.252Z,0.699
2023-10-28T04:22:51.449Z,0.800
2023-10-28T04:23:52.010Z,0.600
2023-10-28T04:24:52.017Z,0.800
2023-10-28T04:26:52.863Z,1
2023-10-28T04:27:53.076Z,0.800
2023-10-28T04:28:51.939Z,0.899
2023-10-28T04:29:50.804Z,0.800
2023-10-28T04:30:52.140Z,0.699
2023-10-28T04:31:53.076Z,0.800
2023-10-28T04:32:53.255Z,1
2023-10-28T04:33:51.183Z,0.800
2023-10-28T04:34:56.383Z,0.899
2023-10-28T04:35:55.512Z,0.800
2023-10-28T04:37:50.540Z,0.899
2023-10-28T04:38:51.130Z,0.699
2023-10-28T04:40:51.994Z,1
2023-10-28T04:41:50.242Z,0.699
2023-10-28T04:42:50.587Z,0.800
2023-10-28T04:43:51.504Z,0.899
2023-10-28T04:45:52.109Z,0.800
2023-10-28T04:46:51.574Z,0.899
2023-10-28T04:47:53.055Z,0.800
2023-10-28T04:48:51.056Z,1
2023-10-28T04:50:52.049Z,0.800
2023-10-28T04:51:51.540Z,0.600
2023-10-28T04:53:51.501Z,0.699
2023-10-28T04:54:52.408Z,0.800
2023-10-28T04:55:52.898Z,0.699
2023-10-28T04:56:52.424Z,0.800
2023-10-28T04:57:51.452Z,0.699
2023-10-28T04:58:52.021Z,0.5
2023-10-28T04:59:50.382Z,0.600
2023-10-28T05:01:51.504Z,0.800
2023-10-28T05:03:49.945Z,0.699
2023-10-28T05:06:51.805Z,0.600
2023-10-28T05:07:49.631Z,0.899
2023-10-28T05:08:47.694Z,0.699
2023-10-28T05:11:50.741Z,0.800
2023-10-28T05:12:50.704Z,0.600
2023-10-28T05:13:51.557Z,0.5
2023-10-28T05:14:51.896Z,0.800
2023-10-28T05:15:52.372Z,0.699
2023-10-28T05:16:51.256Z,0.5
2023-10-28T05:17:51.644Z,0.600
2023-10-28T05:18:51.498Z,0.800
2023-10-28T05:19:50.954Z,0.5
2023-10-28T05:21:51.064Z,0.699
2023-10-28T05:22:51.672Z,0.600
2023-10-28T05:23:51.135Z,0.5
2023-10-28T05:25:50.884Z,0.600
2023-10-28T05:26:52.827Z,0.5
2023-10-28T05:27:52.286Z,0.600
2023-10-28T05:29:51.903Z,0.699
2023-10-28T05:30:51.117Z,0.5
2023-10-28T05:31:51.141Z,0.400
2023-10-28T05:32:51.538Z,0.5
2023-10-28T05:33:51.346Z,0.699
2023-10-28T05:34:51.912Z,0.600
2023-10-28T05:37:51.832Z,0.400
2023-10-28T05:39:51.510Z,0.600
2023-10-28T05:40:51.794Z,0.400
2023-10-28T05:41:50.980Z,0.5
2023-10-28T05:43:49.750Z,0.400
2023-10-28T05:44:51.098Z,0.5
2023-10-28T05:46:50.746Z,0.300
2023-10-28T05:47:51.790Z,0.600
2023-10-28T05:48:51.248Z,0.400
2023-10-28T05:49:51.701Z,0.600
2023-10-28T05:50:51.508Z,0.300
2023-10-28T05:52:48.713Z,0.400
2023-10-28T05:56:51.204Z,0.5
2023-10-28T05:57:51.501Z,0.400
2023-10-28T05:59:50.831Z,0.5
2023-10-28T06:00:50.672Z,0.400
2023-10-28T06:02:52.029Z,0.5
2023-10-28T06:03:51.772Z,0.400
2023-10-28T06:06:50.236Z,0.5
2023-10-28T06:07:51.953Z,0.300
2023-10-28T06:09:51.632Z,0.200
2023-10-28T06:10:51.939Z,0.400
2023-10-28T06:11:51.734Z,0.5
2023-10-28T06:12:51.795Z,0.600
2023-10-28T06:13:51.474Z,0.5
2023-10-28T06:14:50.745Z,0.300
2023-10-28T06:15:51.198Z,0.400
2023-10-28T06:16:50.414Z,0.5
2023-10-28T06:17:50.744Z,0.300
2023-10-28T06:18:51.255Z,0.200
2023-10-28T06:19:51.808Z,0.300
2023-10-28T06:20:51.588Z,0.400
2023-10-28T06:21:50.340Z,0.300
2023-10-28T06:22:51.352Z,0.400
2023-10-28T06:23:49.985Z,0.5
2023-10-28T06:24:49.875Z,0.400
2023-10-28T06:25:52.068Z,0.5
2023-10-28T06:26:52.009Z,0.300
2023-10-28T06:29:51.309Z,0.400
2023-10-28T06:32:51.801Z,0.300
2023-10-28T06:33:49.991Z,0.5
2023-10-28T06:34:51.043Z,0.400
2023-10-28T06:35:50.587Z,0.5
2023-10-28T06:36:51.098Z,0.400
2023-10-28T06:37:52.209Z,0.300
2023-10-28T06:38:50.355Z,0.200
2023-10-28T06:39:52.666Z,0.5
2023-10-28T06:40:51.343Z,0.400
2023-10-28T06:41:51.693Z,0.300
2023-10-28T06:42:52.683Z,0.600
2023-10-28T06:43:52.028Z,0.400
2023-10-28T06:44:50.711Z,0.300
2023-10-28T06:46:51.739Z,0.400
2023-10-28T06:47:49.877Z,0.5
2023-10-28T06:48:50.799Z,0.400
2023-10-28T06:49:51.485Z,0.300
2023-10-28T06:50:51.672Z,0.600
2023-10-28T06:51:51.380Z,0.300
2023-10-28T06:52:51.671Z,0.600
2023-10-28T06:53:50.912Z,0.5
2023-10-28T06:54:51.155Z,0.600
2023-10-28T06:55:50.057Z,0.5
2023-10-28T06:57:50.018Z,0.699
2023-10-28T06:58:50.671Z,0.5
2023-10-28T06:59:50.441Z,0.699
2023-10-28T07:00:51.098Z,0.600
2023-10-28T07:01:51.645Z,0.800
2023-10-28T07:03:51.229Z,0.600
2023-10-28T07:04:51.974Z,0.5
2023-10-28T07:05:50.241Z,0.600
2023-10-28T07:06:51.150Z,0.800
2023-10-28T07:07:50.637Z,0.600
2023-10-28T07:08:51.265Z,0.699
2023-10-28T07:10:50.087Z,0.800
2023-10-28T07:11:51.241Z,0.699
2023-10-28T07:12:51.628Z,1
2023-10-28T07:13:51.999Z,0.699
2023-10-28T07:15:53.713Z,0.800
2023-10-28T07:17:52.491Z,0.699
2023-10-28T07:18:51.371Z,0.800
2023-10-28T07:19:51.463Z,0.899
2023-10-28T07:21:50.024Z,0.800
2023-10-28T07:23:50.673Z,0.699
2023-10-28T07:24:50.932Z,0.600
2023-10-28T07:26:51.759Z,0.699
2023-10-28T07:27:50.893Z,0.800
2023-10-28T07:28:49.437Z,0.699
2023-10-28T07:29:50.382Z,0.600
2023-10-28T07:30:49.038Z,0.800
2023-10-28T07:31:49.740Z,0.699
2023-10-28T07:35:50.257Z,0.800
2023-10-28T07:36:50.393Z,0.5
2023-10-28T07:37:50.929Z,0.899
2023-10-28T07:38:52.226Z,0.800
2023-10-28T07:39:51.810Z,0.699
2023-10-28T07:40:51.716Z,0.800
2023-10-28T07:41:52.434Z,0.699
2023-10-28T07:42:51.393Z,0.800
2023-10-28T07:43:52.109Z,0.699
2023-10-28T07:44:51.726Z,0.899
2023-10-28T07:45:50.677Z,0.800
2023-10-28T07:46:51.438Z,0.899
2023-10-28T07:47:51.583Z,0.699
2023-10-28T07:49:51.615Z,0.5
2023-10-28T07:50:50.846Z,0.800
2023-10-28T07:52:50.445Z,0.600
2023-10-28T07:53:49.020Z,0.699
2023-10-28T07:54:49.634Z,0.600
2023-10-28T07:56:50.201Z,0.699
2023-10-28T07:57:51.246Z,0.800
2023-10-28T07:58:51.805Z,0.5
2023-10-28T07:59:51.115Z,0.800
2023-10-28T08:00:50.443Z,0.699
2023-10-28T08:01:50.480Z,0.600
2023-10-28T08:02:52.261Z,0.5
2023-10-28T08:03:51.711Z,0.600
2023-10-28T08:08:51.781Z,0.400
2023-10-28T08:09:51.677Z,0.600
2023-10-28T08:10:51.468Z,0.5
2023-10-28T08:11:52.018Z,0.400
2023-10-28T08:12:52.375Z,0.5
2023-10-28T08:13:52.607Z,0.400
2023-10-28T08:14:52.356Z,0.300
2023-10-28T08:15:52.767Z,0.5
2023-10-28T08:16:52.849Z,0.400
2023-10-28T08:17:51.914Z,0.699
2023-10-28T08:18:52.532Z,0.600
2023-10-28T08:19:50.760Z,0.5
2023-10-28T08:20:52.001Z,0.600
2023-10-28T08:21:52.723Z,0.5
2023-10-28T08:22:51.262Z,0.400
2023-10-28T08:25:51.243Z,0.600
2023-10-28T08:26:51.796Z,0.300
2023-10-28T08:27:51.941Z,0.699
2023-10-28T08:28:51.516Z,0.400
2023-10-28T08:29:49.694Z,0.5
2023-10-28T08:30:52.192Z,0.600
2023-10-28T08:31:52.059Z,0.5
2023-10-28T08:33:52.828Z,0.400
2023-10-28T08:34:52.477Z,0.300
2023-10-28T08:35:52.432Z,0.400
2023-10-28T08:36:52.108Z,0.5
2023-10-28T08:38:50.607Z,0.300
2023-10-28T08:39:51.552Z,0.5
2023-10-28T08:40:51.747Z,0.300
2023-10-28T08:41:50.297Z,0.600
2023-10-28T08:43:50.959Z,0.5
2023-10-28T08:45:51.973Z,0.400
2023-10-28T08:46:52.034Z,0.5
2023-10-28T08:47:52.184Z,0.600
2023-10-28T08:48:53.650Z,0.400
2023-10-28T08:50:51.271Z,0.600
2023-10-28T08:51:52.170Z,0.5
2023-10-28T08:52:52.297Z,0.699
2023-10-28T08:53:51.931Z,0.600
2023-10-28T08:54:52.715Z,0.300
2023-10-28T08:55:52.368Z,0.5
2023-10-28T08:57:51.180Z,0.400
2023-10-28T08:59:50.947Z,0.5
2023-10-28T09:00:55.930Z,0.600
2023-10-28T09:01:54.153Z,0.400
2023-10-28T09:02:53.737Z,0.5
2023-10-28T09:03:52.441Z,0.300
2023-10-28T09:04:51.629Z,0.600
2023-10-28T09:05:52.463Z,0.5
2023-10-28T09:06:51.797Z,0.600
2023-10-28T09:07:51.480Z,0.300
2023-10-28T09:08:51.227Z,0.400
2023-10-28T09:11:52.903Z,0.600
2023-10-28T09:12:52.930Z,0.5
2023-10-28T09:13:52.697Z,0.400
2023-10-28T09:14:51.947Z,0.5
2023-10-28T09:15:51.247Z,0.600
2023-10-28T09:17:49.955Z,0.400
2023-10-28T09:18:52.084Z,0.600
2023-10-28T09:20:50.835Z,0.400
2023-10-28T09:22:51.592Z,0.699
2023-10-28T09:23:50.989Z,0.600
2023-10-28T09:25:52.002Z,0.699
2023-10-28T09:26:51.389Z,0.600
2023-10-28T09:27:51.694Z,0.699
2023-10-28T09:28:51.627Z,0.600
2023-10-28T09:29:52.180Z,0.699
2023-10-28T09:30:52.210Z,0.600
2023-10-28T09:31:50.457Z,0.899
2023-10-28T09:32:48.770Z,0.800
2023-10-28T09:33:49.872Z,0.699
2023-10-28T09:34:51.767Z,0.899
2023-10-28T09:35:52.571Z,0.699
2023-10-28T09:37:51.730Z,0.800
2023-10-28T09:38:52.363Z,1
2023-10-28T09:39:51.727Z,0.800
2023-10-28T09:40:50.835Z,1
2023-10-28T09:41:51.942Z,0.800
2023-10-28T09:43:51.416Z,1
2023-10-28T09:44:51.156Z,1.299
2023-10-28T09:45:50.978Z,0.699
2023-10-28T09:46:52.002Z,0.600
2023-10-28T09:47:51.510Z,0.800
2023-10-28T09:48:51.524Z,0.699
2023-10-28T09:49:49.328Z,0.899
2023-10-28T09:51:49.912Z,1.100
2023-10-28T09:52:50.397Z,0.899
2023-10-28T09:53:51.332Z,1.100
2023-10-28T09:54:51.793Z,1.399
2023-10-28T09:55:52.404Z,1.5
2023-10-28T09:56:51.932Z,1.100
2023-10-28T09:57:50.885Z,1.200
2023-10-28T10:01:50.298Z,1.799
2023-10-28T10:02:51.142Z,1.299
2023-10-28T10:03:51.999Z,1.5
2023-10-28T10:04:49.488Z,1.399
2023-10-28T10:05:49.747Z,1.799
2023-10-28T10:06:51.302Z,1.399
2023-10-28T10:07:51.728Z,1.200
2023-10-28T10:08:52.278Z,1.399
2023-10-28T10:09:50.137Z,1.700
2023-10-28T10:10:51.361Z,1.5
2023-10-28T10:11:51.200Z,1.399
2023-10-28T10:12:51.173Z,1.200
2023-10-28T10:13:50.960Z,1.299
2023-10-28T10:14:50.284Z,1.600
2023-10-28T10:15:49.977Z,1.5
2023-10-28T10:16:50.663Z,1.399
2023-10-28T10:17:50.450Z,1.700
2023-10-28T10:19:52.408Z,1.399
2023-10-28T10:20:52.519Z,1.5
2023-10-28T10:21:53.234Z,1.399
2023-10-28T10:22:52.878Z,1.5
2023-10-28T10:23:52.220Z,1.399
2023-10-28T10:24:53.146Z,2
2023-10-28T10:25:52.927Z,1.600
2023-10-28T10:26:52.578Z,1.5
2023-10-28T10:27:50.503Z,1.299
2023-10-28T10:28:51.446Z,1.5
2023-10-28T10:29:50.568Z,1.700
2023-10-28T10:30:50.860Z,1.5
2023-10-28T10:31:50.961Z,1.399
2023-10-28T10:32:50.237Z,1.299
2023-10-28T10:33:50.300Z,1.200
2023-10-28T10:34:50.552Z,1.5
2023-10-28T10:35:51.422Z,1.700
2023-10-28T10:36:49.660Z,1.5
2023-10-28T10:38:50.909Z,1.299
2023-10-28T10:39:51.608Z,1.700
2023-10-28T10:40:52.253Z,1.399
2023-10-28T10:43:51.335Z,1.600
2023-10-28T10:44:52.076Z,1.700
2023-10-28T10:46:52.585Z,1.600
2023-10-28T10:47:51.640Z,1.5
2023-10-28T10:48:50.258Z,1.799
2023-10-28T10:49:51.431Z,1.5
2023-10-28T10:50:51.852Z,1.399
2023-10-28T10:51:52.639Z,1.700
2023-10-28T10:52:50.931Z,1.5
2023-10-28T10:53:51.912Z,1.399
2023-10-28T10:54:50.445Z,1.799
2023-10-28T10:55:50.807Z,1.899
2023-10-28T10:56:51.712Z,1.700
2023-10-28T10:57:51.612Z,1.799
2023-10-28T10:58:51.221Z,1.600
2023-10-28T10:59:51.150Z,2
2023-10-28T11:00:51.920Z,1.600
2023-10-28T11:01:52.571Z,2.099
2023-10-28T11:02:52.903Z,1.700
2023-10-28T11:03:51.454Z,1.399
2023-10-28T11:04:51.749Z,2
2023-10-28T11:05:50.686Z,1.600
2023-10-28T11:06:50.489Z,1.5
2023-10-28T11:07:52.247Z,1.600
2023-10-28T11:09:50.192Z,1.799
2023-10-28T11:10:52.209Z,1.399
2023-10-28T11:12:50.561Z,1.600
2023-10-28T11:13:48.821Z,1.299
2023-10-28T11:15:51.683Z,1.100
2023-10-28T11:16:51.390Z,1.299
2023-10-28T11:17:51.971Z,1.200
2023-10-28T11:18:49.269Z,1.299
2023-10-28T11:19:51.067Z,1.100
2023-10-28T11:20:52.050Z,1.299
2023-10-28T11:21:52.262Z,1.100
2023-10-28T11:22:52.415Z,1.299
2023-10-28T11:23:52.363Z,1
2023-10-28T11:24:52.565Z,1.100
2023-10-28T11:25:52.070Z,1.399
2023-10-28T11:26:51.568Z,1.299
2023-10-28T11:27:51.866Z,1.200
2023-10-28T11:28:50.784Z,1.100
2023-10-28T11:29:51.069Z,1.299
2023-10-28T11:30:51.478Z,1.200
2023-10-28T11:31:51.846Z,0.899
2023-10-28T11:32:51.114Z,1.100
2023-10-28T11:35:51.553Z,1
2023-10-28T11:36:49.775Z,1.299
2023-10-28T11:37:51.140Z,1.100
2023-10-28T11:38:51.868Z,1.299
2023-10-28T11:39:51.351Z,1.399
2023-10-28T11:40:51.026Z,1.200
2023-10-28T11:41:51.045Z,1.299
2023-10-28T11:42:51.926Z,1.100
2023-10-28T11:44:51.798Z,1.399
2023-10-28T11:45:51.339Z,1.200
2023-10-28T11:48:51.926Z,1.399
2023-10-28T11:49:51.366Z,1.299
2023-10-28T11:50:49.662Z,1.399
2023-10-28T11:51:50.649Z,1.5
2023-10-28T11:52:49.377Z,1.299
2023-10-28T11:53:50.788Z,1
2023-10-28T11:54:50.282Z,1.200
2023-10-28T11:56:51.631Z,1.299
2023-10-28T11:58:51.683Z,1
2023-10-28T11:59:51.146Z,1.299
2023-10-28T12:00:53.518Z,1.200
2023-10-28T12:01:54.710Z,1.399
2023-10-28T12:03:52.188Z,1.5
2023-10-28T12:04:52.121Z,1.100
2023-10-28T12:07:51.458Z,1.5
2023-10-28T12:08:49.910Z,1.299
2023-10-28T12:09:50.988Z,1.100
2023-10-28T12:10:49.814Z,1.399
2023-10-28T12:11:49.879Z,1.100
2023-10-28T12:12:50.537Z,0.899
2023-10-28T12:13:51.397Z,1.299
2023-10-28T12:14:50.428Z,1.100
2023-10-28T12:16:50.802Z,1.200
2023-10-28T12:17:50.853Z,1.100
2023-10-28T12:19:50.566Z,0.899
2023-10-28T12:21:51.698Z,1.200
2023-10-28T12:22:52.498Z,0.899
2023-10-28T12:24:52.466Z,0.800
2023-10-28T12:25:52.904Z,0.699
2023-10-28T12:26:52.862Z,1.200
2023-10-28T12:27:52.385Z,0.699
2023-10-28T12:28:51.797Z,0.899
2023-10-28T12:29:51.297Z,0.800
2023-10-28T12:30:52.408Z,0.600
2023-10-28T12:31:51.936Z,0.699
2023-10-28T12:32:52.327Z,0.899
2023-10-28T12:33:52.115Z,0.699
2023-10-28T12:34:52.694Z,0.899
2023-10-28T12:35:49.645Z,0.800
2023-10-28T12:37:51.823Z,0.699
2023-10-28T12:39:51.849Z,0.800
2023-10-28T12:40:51.184Z,0.699
2023-10-28T12:42:51.599Z,0.899
2023-10-28T12:44:51.305Z,0.600
2023-10-28T12:45:52.090Z,0.699
2023-10-28T12:47:51.881Z,0.800
2023-10-28T12:48:51.213Z,0.600
2023-10-28T12:49:51.845Z,0.800
2023-10-28T12:50:52.925Z,0.699
2023-10-28T12:53:52.849Z,0.800
2023-10-28T12:54:52.847Z,0.600
2023-10-28T12:55:52.307Z,0.899
2023-10-28T12:56:52.063Z,1
2023-10-28T12:57:52.671Z,0.5
2023-10-28T12:58:51.424Z,0.699
2023-10-28T12:59:52.269Z,0.600
2023-10-28T13:02:52.826Z,0.699
2023-10-28T13:03:51.875Z,0.600
2023-10-28T13:04:51.013Z,0.5
2023-10-28T13:06:50.150Z,0.400
2023-10-28T13:07:51.513Z,0.600
2023-10-28T13:09:51.541Z,0.5
2023-10-28T13:10:54.983Z,0.600
2023-10-28T13:11:53.576Z,0.5
2023-10-28T13:13:50.963Z,0.600
2023-10-28T13:14:51.670Z,0.5
2023-10-28T13:15:51.723Z,0.400
2023-10-28T13:16:53.015Z,0.600
2023-10-28T13:18:50.798Z,0.699
2023-10-28T13:20:50.652Z,0.5
2023-10-28T13:21:49.641Z,0.400
2023-10-28T13:22:53.049Z,0.5
2023-10-28T13:24:51.296Z,0.699
2023-10-28T13:25:51.266Z,0.5
2023-10-28T13:26:50.968Z,0.699
2023-10-28T13:28:52.111Z,0.5
2023-10-28T13:29:51.388Z,0.800
2023-10-28T13:30:52.857Z,0.699
2023-10-28T13:32:56.762Z,0.800
2023-10-28T13:33:54.563Z,0.5
2023-10-28T13:34:53.394Z,0.300
2023-10-28T13:35:53.233Z,0.5
2023-10-28T13:36:52.515Z,0.200
2023-10-28T13:37:51.089Z,0.600
2023-10-28T13:38:50.301Z,0.400
2023-10-28T13:41:52.435Z,0.200
2023-10-28T13:42:52.038Z,0.300
2023-10-28T13:43:52.541Z,0.200
2023-10-28T13:44:53.237Z,0.400
2023-10-28T13:45:52.732Z,0.5
2023-10-28T13:48:52.381Z,0.600
2023-10-28T13:49:51.352Z,0.699
2023-10-28T13:50:52.562Z,0.300
2023-10-28T13:51:52.370Z,0.5
2023-10-28T13:52:51.978Z,0.400
2023-10-28T13:53:53.279Z,0.300
2023-10-28T13:55:53.172Z,0.200
2023-10-28T13:57:51.439Z,0.100
2023-10-28T13:58:50.844Z,0.300
2023-10-28T14:01:50.482Z,0.200
2023-10-28T14:03:50.871Z,0.400
2023-10-28T14:04:50.952Z,0.300
2023-10-28T14:08:50.883Z,0.400
2023-10-28T14:09:52.121Z,1
2023-10-28T14:10:54.610Z,0.800
2023-10-28T14:11:53.705Z,0.899
2023-10-28T14:12:52.210Z,0.800
2023-10-28T14:13:51.000Z,0.699
2023-10-28T14:15:52.024Z,0.400
2023-10-28T14:17:52.385Z,0.300
2023-10-28T14:18:53.072Z,0.400
2023-10-28T14:21:51.585Z,0.300
2023-10-28T14:22:54.475Z,0.400
2023-10-28T14:23:53.516Z,0.300
2023-10-28T14:24:53.051Z,0.400
2023-10-28T14:25:52.008Z,0.5
2023-10-28T14:27:52.334Z,0.400
2023-10-28T14:31:51.738Z,0.300
2023-10-28T14:32:52.262Z,0.5
2023-10-28T14:33:51.449Z,0.300
2023-10-28T14:35:51.627Z,0.400
2023-10-28T14:36:53.103Z,0.5
2023-10-28T14:37:52.055Z,0.300
2023-10-28T14:38:51.246Z,0.5
2023-10-28T14:39:51.587Z,0.400
2023-10-28T14:40:51.723Z,0.300
2023-10-28T14:42:51.053Z,0.600
2023-10-28T14:43:51.907Z,0.5
2023-10-28T14:44:51.486Z,0.400
2023-10-28T14:46:52.518Z,0.5
2023-10-28T14:48:52.814Z,0.699
2023-10-28T14:49:52.269Z,0.600
2023-10-28T14:50:53.378Z,0.5
2023-10-28T14:51:52.702Z,0.699
2023-10-28T14:52:53.114Z,0.5
2023-10-28T14:53:52.984Z,0.600
2023-10-28T14:54:52.426Z,0.699
2023-10-28T14:55:53.189Z,0.5
2023-10-28T14:56:53.913Z,0.699
2023-10-28T14:58:07.269Z,0.600
2023-10-28T14:58:50.339Z,0.5
2023-10-28T15:00:52.865Z,0.400
2023-10-28T15:01:51.269Z,0.600
2023-10-28T15:02:52.331Z,0.699
2023-10-28T15:03:53.048Z,0.800
2023-10-28T15:04:53.642Z,0.699
2023-10-28T15:05:53.276Z,0.800
2023-10-28T15:06:53.047Z,0.600
2023-10-28T15:07:52.792Z,0.5
2023-10-28T15:09:53.311Z,0.600
2023-10-28T15:12:53.970Z,0.800
2023-10-28T15:13:52.759Z,0.600
2023-10-28T15:14:52.155Z,0.5
2023-10-28T15:15:52.153Z,0.400
2023-10-28T15:16:52.369Z,0.5
2023-10-28T15:18:50.396Z,0.600
2023-10-28T15:19:51.642Z,0.300
2023-10-28T15:20:51.627Z,0.600
2023-10-28T15:21:51.449Z,0.400
2023-10-28T15:24:51.974Z,0.5
2023-10-28T15:25:51.887Z,0.400
2023-10-28T15:26:52.711Z,0.300
2023-10-28T15:28:50.794Z,0.5
2023-10-28T15:29:52.688Z,0.400
2023-10-28T15:30:53.794Z,0.300
2023-10-28T15:31:52.454Z,0.5
2023-10-28T15:33:52.901Z,0.600
2023-10-28T15:34:52.445Z,0.699
2023-10-28T15:35:52.648Z,0.899
2023-10-28T15:38:51.825Z,1
2023-10-28T15:39:51.637Z,0.800
2023-10-28T15:40:54.101Z,0.699
2023-10-28T15:43:51.883Z,0.600
2023-10-28T15:44:53.534Z,0.699
2023-10-28T15:45:53.355Z,0.600
2023-10-28T15:46:51.766Z,0.5
2023-10-28T15:47:50.221Z,0.400
2023-10-28T15:48:49.863Z,0.600
2023-10-28T15:49:49.765Z,0.699
2023-10-28T15:52:51.997Z,0.600
2023-10-28T15:53:52.498Z,0.400
2023-10-28T15:54:52.674Z,0.5
2023-10-28T15:55:53.070Z,0.400
2023-10-28T15:56:54.350Z,0.5
2023-10-28T15:57:53.703Z,0.699
2023-10-28T15:58:53.215Z,0.400
2023-10-28T15:59:51.922Z,0.5
2023-10-28T16:00:53.592Z,0.400
2023-10-28T16:01:53.331Z,0.600
2023-10-28T16:03:52.549Z,0.5
2023-10-28T16:05:52.489Z,0.699
2023-10-28T16:07:52.963Z,1.200
2023-10-28T16:08:51.586Z,0.800
2023-10-28T16:10:51.616Z,0.899
2023-10-28T16:11:52.920Z,0.699
2023-10-28T16:12:52.167Z,0.600
2023-10-28T16:14:53.322Z,0.899
2023-10-28T16:15:53.772Z,0.800
2023-10-28T16:16:53.452Z,0.699
2023-10-28T16:17:52.011Z,0.800
2023-10-28T16:18:52.835Z,0.899
2023-10-28T16:19:51.854Z,0.5
2023-10-28T16:20:50.539Z,0.800
2023-10-28T16:22:52.221Z,0.600
2023-10-28T16:23:51.685Z,0.5
2023-10-28T16:24:51.762Z,0.899
2023-10-28T16:25:52.357Z,0.600
2023-10-28T16:27:52.430Z,0.699
2023-10-28T16:29:52.428Z,0.600
2023-10-28T16:30:52.721Z,0.699
2023-10-28T16:31:51.776Z,0.5
2023-10-28T16:35:51.776Z,0.400
2023-10-28T16:36:52.436Z,0.5
2023-10-28T16:39:52.062Z,0.699
2023-10-28T16:40:52.507Z,0.5
2023-10-28T16:41:52.818Z,0.699
2023-10-28T16:43:52.067Z,0.800
2023-10-28T16:44:51.771Z,0.600
2023-10-28T16:46:52.766Z,1
2023-10-28T16:47:51.674Z,0.899
2023-10-28T16:48:52.014Z,1.200
2023-10-28T16:49:51.931Z,0.699
2023-10-28T16:51:52.490Z,0.600
2023-10-28T16:52:52.178Z,0.5
2023-10-28T16:53:53.012Z,0.800
2023-10-28T16:54:51.731Z,0.699
2023-10-28T16:56:52.088Z,0.5
2023-10-28T16:57:51.577Z,0.699
2023-10-28T16:59:51.598Z,0.400
2023-10-28T17:00:52.752Z,0.5
2023-10-28T17:01:51.203Z,0.600
2023-10-28T17:02:51.524Z,0.400
2023-10-28T17:03:51.276Z,0.5
2023-10-28T17:05:52.205Z,0.600